Franklin, NJ (07416)

3:05 AM EDT on August 21, 2014 (GMT -0400)
KNJFRANK2 | Change Station
CLOSE
Current Station
Personal Weather Station
Location: Franklin, NJ
Elevation: 571 ft
Nearby Weather Stations

Elev 571 ft 41.12 °N, 74.59 °W | Updated 5 minutes ago

Light Rain
Light Rain
65.0 °F
Feels Like 65.0 °F
N
0.0
Wind Variable Wind from North
Gusts 0.0 mph

Today
High -- | Low -- °F
--% Chance of Precip.
Yesterday
High -- | Low -- °F
Precip. -- in
6:13 AM 7:48 PM
Waning Crescent, 16% visible
Pressure 30.02 in
Visibility 10.0 miles
Clouds Mostly Cloudy 4400 ft
Mostly Cloudy 5500 ft
Overcast 7000 ft
Dew Point 62 °F
Humidity 89%
Rainfall 0.00 in
Snow Depth Not available.
UV 0 out of 12
Pollen 9.70 out of 12
Air Quality Not available.
Flu Activity Not available.
METAR KFWN 210653Z AUTO 00000KT 10SM -RA BKN044 BKN055 OVC070 20/17 A3003 RMK AO2 SLP165 P0001 T02000172

More Conditions Fewer Conditions

Pressure 30.02 in
Visibility 10.0 miles
Clouds Mostly Cloudy 4400 ft
Mostly Cloudy 5500 ft
Overcast 7000 ft
Dew Point 62 °F
Humidity 89%
Rainfall 0.00 in
Snow Depth Not available.
UV 0 out of 12
Pollen 9.70 out of 12
Air Quality Not available.
Flu Activity Not available.
METAR KFWN 210653Z AUTO 00000KT 10SM -RA BKN044 BKN055 OVC070 20/17 A3003 RMK AO2 SLP165 P0001 T02000172

More Conditions Fewer Conditions

10-Day Weather Forecast

Almanac

Astronomy

Aug. 21, 2014 Rise Set
Actual Time 6:13 AM EDT 7:48 PM EDT
Civil Twilight 5:44 AM EDT 8:17 PM EDT
Nautical Twilight 5:09 AM EDT 8:52 PM EDT
Astronomical Twilight 4:32 AM EDT 9:29 PM EDT
Moon 2:41 AM EDT 5:16 PM EDT
Length of Visible Light 14h 32m
Length of Day
13h 34m
Tomorrow will be 2m 30s shorter.
Waning Crescent, 16% of the Moon is Illuminated
Today
Waning Crescent
Aug 25
New
Sep 2
First Quarter
Sep 8
Full
Sep 15
Last Quarter

Today's Extremes

State Highs State Lows

Community

WunderPhotos

Upload Photos

1,745,858 photos uploaded!

Nearby

Snow Depth

Station Depth Elevation
No new snow has been reported.

Earthquake Activity

City Distance Mag. Time & Date
No recent earthquake activity has been reported nearby.
Minimum magnitude displayed is 2.5.

Coastal Water Temperatures

Place Temperature
No Stations Reporting

Nearby Weather Stations